createdAt,value
2018-03-02T00:00:50.895Z,-7.96
2018-03-02T00:01:50.835Z,-7.90
2018-03-02T00:02:50.775Z,-7.94
2018-03-02T00:03:50.715Z,-7.87
2018-03-02T00:04:50.662Z,-7.91
2018-03-02T00:05:50.594Z,-7.96
2018-03-02T00:06:50.534Z,-7.90
2018-03-02T00:07:50.475Z,-7.87
2018-03-02T00:08:50.413Z,-7.87
2018-03-02T00:09:50.394Z,-7.93
2018-03-02T00:10:50.292Z,-7.91
2018-03-02T00:11:50.234Z,-7.89
2018-03-02T00:12:50.173Z,-7.93
2018-03-02T00:13:50.112Z,-7.94
2018-03-02T00:14:50.053Z,-8.01
2018-03-02T00:15:49.993Z,-8.08
2018-03-02T00:16:49.932Z,-8.02
2018-03-02T00:17:49.872Z,-7.97
2018-03-02T00:18:49.813Z,-8.02
2018-03-02T00:19:49.752Z,-8.12
2018-03-02T00:20:49.694Z,-8.06
2018-03-02T00:21:49.631Z,-8.02
2018-03-02T00:22:49.570Z,-8.02
2018-03-02T00:23:49.510Z,-8.09
2018-03-02T00:24:49.452Z,-8.09
2018-03-02T00:25:49.389Z,-8.18
2018-03-02T00:26:49.329Z,-8.15
2018-03-02T00:27:49.268Z,-8.21
2018-03-02T00:28:49.207Z,-8.21
2018-03-02T00:29:49.147Z,-8.19
2018-03-02T00:30:49.087Z,-8.24
2018-03-02T00:31:49.026Z,-8.19
2018-03-02T00:32:48.965Z,-8.21
2018-03-02T00:33:48.904Z,-8.21
2018-03-02T00:34:48.844Z,-8.21
2018-03-02T00:35:48.786Z,-8.19
2018-03-02T00:36:48.722Z,-8.21
2018-03-02T00:37:48.663Z,-8.15
2018-03-02T00:38:48.603Z,-8.19
2018-03-02T00:39:48.542Z,-8.21
2018-03-02T00:40:48.482Z,-8.23
2018-03-02T00:41:48.420Z,-8.09
2018-03-02T00:42:48.361Z,-8.23
2018-03-02T00:43:48.300Z,-8.18
2018-03-02T00:44:48.242Z,-8.15
2018-03-02T00:45:48.181Z,-8.18
2018-03-02T00:46:48.119Z,-8.16
2018-03-02T00:47:48.058Z,-8.15
2018-03-02T00:48:47.997Z,-8.05
2018-03-02T00:49:47.937Z,-8.13
2018-03-02T00:50:47.878Z,-8.24
2018-03-02T00:51:47.817Z,-8.26
2018-03-02T00:52:47.756Z,-8.33
2018-03-02T00:53:47.696Z,-8.31
2018-03-02T00:54:47.635Z,-8.27
2018-03-02T00:55:47.575Z,-8.29
2018-03-02T00:56:47.514Z,-8.30
2018-03-02T00:57:47.454Z,-8.34
2018-03-02T00:58:47.394Z,-8.31
2018-03-02T00:59:47.333Z,-8.33
2018-03-02T01:00:47.272Z,-8.29
2018-03-02T01:01:47.212Z,-8.31
2018-03-02T01:02:47.152Z,-8.36
2018-03-02T01:03:47.091Z,-8.31
2018-03-02T01:04:47.030Z,-8.31
2018-03-02T01:05:46.969Z,-8.44
2018-03-02T01:06:46.909Z,-8.37
2018-03-02T01:07:46.848Z,-8.47
2018-03-02T01:08:46.789Z,-8.33
2018-03-02T01:09:46.727Z,-8.37
2018-03-02T01:10:46.676Z,-8.40
2018-03-02T01:11:46.605Z,-8.37
2018-03-02T01:12:46.545Z,-8.33
2018-03-02T01:13:46.484Z,-8.30
2018-03-02T01:14:46.424Z,-8.42
2018-03-02T01:15:46.363Z,-8.40
2018-03-02T01:16:46.304Z,-8.37
2018-03-02T01:17:46.240Z,-8.44
2018-03-02T01:18:46.182Z,-8.48
2018-03-02T01:19:46.121Z,-8.44
2018-03-02T01:20:46.060Z,-8.40
2018-03-02T01:21:45.999Z,-8.44
2018-03-02T01:22:45.938Z,-8.39
2018-03-02T01:23:45.878Z,-8.37
2018-03-02T01:24:45.817Z,-8.44
2018-03-02T01:25:45.756Z,-8.47
2018-03-02T01:26:45.696Z,-8.40
2018-03-02T01:27:45.636Z,-8.36
2018-03-02T01:28:45.574Z,-8.40
2018-03-02T01:29:45.514Z,-8.51
2018-03-02T01:30:45.453Z,-8.47
2018-03-02T01:31:45.396Z,-8.40
2018-03-02T01:32:45.333Z,-8.39
2018-03-02T01:33:45.276Z,-8.39
2018-03-02T01:34:45.211Z,-8.39
2018-03-02T01:35:45.151Z,-8.36
2018-03-02T01:36:45.090Z,-8.44
2018-03-02T01:37:45.030Z,-8.40
2018-03-02T01:38:44.969Z,-8.36
2018-03-02T01:39:44.908Z,-8.40
2018-03-02T01:40:44.847Z,-8.39
2018-03-02T01:41:44.788Z,-8.44
2018-03-02T01:42:44.727Z,-8.39
2018-03-02T01:43:44.667Z,-8.34
2018-03-02T01:44:44.606Z,-8.36
2018-03-02T01:45:44.545Z,-8.37
2018-03-02T01:46:44.485Z,-8.34
2018-03-02T01:47:44.425Z,-8.34
2018-03-02T01:48:44.364Z,-8.37
2018-03-02T01:49:44.304Z,-8.31
2018-03-02T01:50:44.246Z,-8.40
2018-03-02T01:51:44.183Z,-8.40
2018-03-02T01:52:44.122Z,-8.39
2018-03-02T01:53:44.062Z,-8.42
2018-03-02T01:54:44.002Z,-8.37
2018-03-02T01:55:43.942Z,-8.50
2018-03-02T01:56:43.880Z,-8.50
2018-03-02T01:57:43.821Z,-8.52
2018-03-02T01:58:43.761Z,-8.52
2018-03-02T01:59:43.700Z,-8.52
2018-03-02T02:00:43.639Z,-8.45
2018-03-02T02:01:43.579Z,-8.50
2018-03-02T02:02:43.518Z,-8.58
2018-03-02T02:03:43.458Z,-8.66
2018-03-02T02:04:43.397Z,-8.57
2018-03-02T02:05:43.336Z,-8.65
2018-03-02T02:06:43.276Z,-8.60
2018-03-02T02:07:43.215Z,-8.51
2018-03-02T02:08:43.154Z,-8.48
2018-03-02T02:09:43.093Z,-8.50
2018-03-02T02:10:43.033Z,-8.63
2018-03-02T02:11:42.972Z,-8.57
2018-03-02T02:12:42.911Z,-8.51
2018-03-02T02:13:42.853Z,-8.65
2018-03-02T02:14:42.790Z,-8.66
2018-03-02T02:15:42.730Z,-8.52
2018-03-02T02:16:42.668Z,-8.63
2018-03-02T02:17:42.608Z,-8.60
2018-03-02T02:18:42.551Z,-8.62
2018-03-02T02:19:42.486Z,-8.63
2018-03-02T02:20:42.427Z,-8.60
2018-03-02T02:21:42.365Z,-8.63
2018-03-02T02:22:42.305Z,-8.58
2018-03-02T02:23:42.243Z,-8.60
2018-03-02T02:24:42.183Z,-8.57
2018-03-02T02:25:42.122Z,-8.63
2018-03-02T02:26:42.061Z,-8.58
2018-03-02T02:27:42.001Z,-8.58
2018-03-02T02:28:41.940Z,-8.68
2018-03-02T02:29:41.879Z,-8.65
2018-03-02T02:30:41.819Z,-8.69
2018-03-02T02:31:41.769Z,-8.75
2018-03-02T02:32:41.699Z,-8.72
2018-03-02T02:33:41.636Z,-8.66
2018-03-02T02:34:41.580Z,-8.76
2018-03-02T02:35:41.514Z,-8.68
2018-03-02T02:36:41.454Z,-8.75
2018-03-02T02:37:41.393Z,-8.68
2018-03-02T02:38:41.332Z,-8.66
2018-03-02T02:39:41.272Z,-8.65
2018-03-02T02:40:41.210Z,-8.65
2018-03-02T02:41:41.150Z,-8.69
2018-03-02T02:42:41.090Z,-8.62
2018-03-02T02:43:41.029Z,-8.65
2018-03-02T02:44:40.968Z,-8.72
2018-03-02T02:45:40.908Z,-8.62
2018-03-02T02:46:40.848Z,-8.65
2018-03-02T02:47:40.787Z,-8.62
2018-03-02T02:48:40.724Z,-8.63
2018-03-02T02:49:40.665Z,-8.63
2018-03-02T02:50:40.605Z,-8.72
2018-03-02T02:51:40.544Z,-8.78
2018-03-02T02:52:40.496Z,-8.75
2018-03-02T02:53:40.428Z,-8.72
2018-03-02T02:54:40.361Z,-8.78
2018-03-02T02:55:40.301Z,-8.81
2018-03-02T02:56:40.239Z,-8.80
2018-03-02T02:57:40.179Z,-8.68
2018-03-02T02:58:40.122Z,-8.76
2018-03-02T02:59:40.059Z,-8.81
2018-03-02T03:00:39.996Z,-8.72
2018-03-02T03:01:39.937Z,-8.73
2018-03-02T03:02:39.875Z,-8.70
2018-03-02T03:03:39.813Z,-8.69
2018-03-02T03:04:39.758Z,-8.69
2018-03-02T03:05:39.692Z,-8.75
2018-03-02T03:06:39.631Z,-8.84
2018-03-02T03:07:39.571Z,-8.76
2018-03-02T03:08:39.509Z,-8.75
2018-03-02T03:09:39.448Z,-8.76
2018-03-02T03:10:39.388Z,-8.73
2018-03-02T03:11:39.327Z,-8.80
2018-03-02T03:12:39.265Z,-8.83
2018-03-02T03:13:39.205Z,-8.76
2018-03-02T03:14:39.144Z,-8.89
2018-03-02T03:15:39.083Z,-8.93
2018-03-02T03:16:39.022Z,-8.94
2018-03-02T03:17:38.961Z,-8.98
2018-03-02T03:18:38.900Z,-9.00
2018-03-02T03:19:38.840Z,-8.93
2018-03-02T03:20:38.783Z,-8.90
2018-03-02T03:21:38.717Z,-8.87
2018-03-02T03:22:38.656Z,-8.91
2018-03-02T03:23:38.596Z,-8.89
2018-03-02T03:24:38.534Z,-8.90
2018-03-02T03:25:38.473Z,-8.90
2018-03-02T03:26:38.413Z,-8.91
2018-03-02T03:27:38.352Z,-8.90
2018-03-02T03:28:38.293Z,-8.93
2018-03-02T03:29:38.229Z,-8.94
2018-03-02T03:30:38.169Z,-8.93
2018-03-02T03:31:38.109Z,-9.01
2018-03-02T03:32:38.047Z,-8.90
2018-03-02T03:33:37.986Z,-8.93
2018-03-02T03:34:37.929Z,-8.81
2018-03-02T03:35:37.864Z,-8.84
2018-03-02T03:36:37.801Z,-8.98
2018-03-02T03:37:37.742Z,-8.90
2018-03-02T03:38:37.682Z,-8.96
2018-03-02T03:39:37.623Z,-9.02
2018-03-02T03:40:37.559Z,-9.07
2018-03-02T03:41:37.497Z,-9.11
2018-03-02T03:42:37.437Z,-9.12
2018-03-02T03:43:37.409Z,-9.10
2018-03-02T03:44:37.315Z,-9.11
2018-03-02T03:45:37.254Z,-9.04
2018-03-02T03:46:37.196Z,-9.04
2018-03-02T03:47:37.132Z,-9.05
2018-03-02T03:48:37.070Z,-8.94
2018-03-02T03:49:37.010Z,-8.96
2018-03-02T03:50:36.948Z,-9.04
2018-03-02T03:51:36.887Z,-9.04
2018-03-02T03:52:36.825Z,-9.08
2018-03-02T03:53:36.773Z,-9.14
2018-03-02T03:54:36.704Z,-9.10
2018-03-02T03:55:36.643Z,-9.10
2018-03-02T03:56:36.581Z,-9.08
2018-03-02T03:57:36.520Z,-9.01
2018-03-02T03:58:36.459Z,-9.04
2018-03-02T03:59:36.398Z,-9.10
2018-03-02T04:00:36.336Z,-9.11
2018-03-02T04:01:36.275Z,-9.11
2018-03-02T04:02:36.214Z,-9.10
2018-03-02T04:03:36.154Z,-9.10
2018-03-02T04:04:36.092Z,-9.07
2018-03-02T04:05:36.031Z,-9.12
2018-03-02T04:06:35.970Z,-9.05
2018-03-02T04:07:35.925Z,-9.12
2018-03-02T04:08:35.847Z,-9.18
2018-03-02T04:09:35.786Z,-9.08
2018-03-02T04:10:35.725Z,-9.11
2018-03-02T04:11:35.665Z,-9.04
2018-03-02T04:12:35.603Z,-9.08
2018-03-02T04:13:35.549Z,-9.04
2018-03-02T04:14:35.481Z,-8.98
2018-03-02T04:15:35.420Z,-8.91
2018-03-02T04:16:35.359Z,-8.89
2018-03-02T04:17:35.298Z,-8.84
2018-03-02T04:18:35.237Z,-8.89
2018-03-02T04:19:35.181Z,-8.91
2018-03-02T04:20:35.116Z,-8.81
2018-03-02T04:21:35.055Z,-8.96
2018-03-02T04:22:34.996Z,-8.94
2018-03-02T04:23:34.936Z,-8.98
2018-03-02T04:24:34.872Z,-8.94
2018-03-02T04:25:34.811Z,-8.94
2018-03-02T04:26:34.750Z,-8.94
2018-03-02T04:27:34.689Z,-8.96
2018-03-02T04:28:34.628Z,-8.96
2018-03-02T04:29:34.570Z,-8.96
2018-03-02T04:30:34.507Z,-8.93
2018-03-02T04:31:34.450Z,-8.90
2018-03-02T04:32:34.384Z,-8.93
2018-03-02T04:33:34.324Z,-8.94
2018-03-02T04:34:34.264Z,-8.90
2018-03-02T04:35:34.203Z,-8.96
2018-03-02T04:36:34.142Z,-8.90
2018-03-02T04:37:34.081Z,-8.93
2018-03-02T04:38:34.021Z,-8.91
2018-03-02T04:39:33.959Z,-8.84
2018-03-02T04:40:33.898Z,-8.89
2018-03-02T04:41:33.837Z,-8.91
2018-03-02T04:42:33.777Z,-8.89
2018-03-02T04:43:33.717Z,-8.96
2018-03-02T04:44:33.660Z,-8.90
2018-03-02T04:45:33.595Z,-8.78
2018-03-02T04:46:33.534Z,-8.81
2018-03-02T04:47:33.473Z,-8.83
2018-03-02T04:48:33.412Z,-8.86
2018-03-02T04:49:33.351Z,-8.84
2018-03-02T04:50:33.312Z,-8.86
2018-03-02T04:51:33.235Z,-8.84
2018-03-02T04:52:33.170Z,-8.86
2018-03-02T04:53:33.109Z,-8.84
2018-03-02T04:54:33.048Z,-8.89
2018-03-02T04:55:32.988Z,-8.96
2018-03-02T04:56:32.929Z,-8.87
2018-03-02T04:57:32.865Z,-8.91
2018-03-02T04:58:32.805Z,-8.89
2018-03-02T04:59:32.745Z,-8.89
2018-03-02T05:00:32.688Z,-8.90
2018-03-02T05:01:32.623Z,-9.00
2018-03-02T05:02:32.562Z,-8.93
2018-03-02T05:03:32.503Z,-8.96
2018-03-02T05:04:32.440Z,-8.96
2018-03-02T05:05:32.379Z,-8.90
2018-03-02T05:06:32.320Z,-8.94
2018-03-02T05:07:32.258Z,-9.00
2018-03-02T05:08:32.196Z,-8.94
2018-03-02T05:09:32.137Z,-9.00
2018-03-02T05:10:32.076Z,-8.96
2018-03-02T05:11:32.015Z,-9.07
2018-03-02T05:12:31.956Z,-9.10
2018-03-02T05:13:31.892Z,-9.00
2018-03-02T05:14:31.832Z,-9.14
2018-03-02T05:15:31.770Z,-9.10
2018-03-02T05:16:31.710Z,-9.08
2018-03-02T05:17:31.649Z,-9.18
2018-03-02T05:18:31.587Z,-9.20
2018-03-02T05:19:31.527Z,-9.10
2018-03-02T05:20:31.466Z,-9.12
2018-03-02T05:21:31.404Z,-9.26
2018-03-02T05:22:31.393Z,-9.11
2018-03-02T05:23:31.283Z,-9.25
2018-03-02T05:24:31.221Z,-9.22
2018-03-02T05:25:31.159Z,-9.23
2018-03-02T05:26:31.098Z,-9.20
2018-03-02T05:27:31.038Z,-9.28
2018-03-02T05:28:30.978Z,-9.23
2018-03-02T05:29:30.914Z,-9.19
2018-03-02T05:30:30.854Z,-9.26
2018-03-02T05:31:30.849Z,-9.26
2018-03-02T05:32:30.731Z,-9.25
2018-03-02T05:33:30.674Z,-9.19
2018-03-02T05:34:30.608Z,-9.23
2018-03-02T05:35:30.548Z,-9.23
2018-03-02T05:36:30.486Z,-9.28
2018-03-02T05:37:30.425Z,-9.25
2018-03-02T05:38:30.363Z,-9.23
2018-03-02T05:39:30.303Z,-9.14
2018-03-02T05:40:30.241Z,-9.11
2018-03-02T05:41:30.181Z,-9.14
2018-03-02T05:42:30.119Z,-9.25
2018-03-02T05:43:30.058Z,-9.22
2018-03-02T05:44:29.996Z,-9.11
2018-03-02T05:45:29.935Z,-9.15
2018-03-02T05:46:29.875Z,-9.15
2018-03-02T05:47:29.816Z,-9.19
2018-03-02T05:48:29.752Z,-9.11
2018-03-02T05:49:29.691Z,-9.10
2018-03-02T05:50:29.630Z,-9.10
2018-03-02T05:51:29.569Z,-9.05
2018-03-02T05:52:29.507Z,-9.15
2018-03-02T05:53:29.447Z,-9.22
2018-03-02T05:54:29.385Z,-9.23
2018-03-02T05:55:29.325Z,-9.15
2018-03-02T05:56:29.267Z,-9.26
2018-03-02T05:57:29.202Z,-9.12
2018-03-02T05:58:29.144Z,-9.22
2018-03-02T05:59:29.083Z,-9.20
2018-03-02T06:00:29.024Z,-9.20
2018-03-02T06:01:28.957Z,-9.22
2018-03-02T06:02:28.896Z,-9.22
2018-03-02T06:03:28.835Z,-9.14
2018-03-02T06:04:28.774Z,-9.12
2018-03-02T06:05:28.713Z,-9.08
2018-03-02T06:06:28.652Z,-9.19
2018-03-02T06:07:28.594Z,-9.12
2018-03-02T06:08:28.529Z,-9.20
2018-03-02T06:09:28.476Z,-9.10
2018-03-02T06:10:28.407Z,-9.18
2018-03-02T06:11:28.347Z,-9.08
2018-03-02T06:12:28.288Z,-9.10
2018-03-02T06:13:28.225Z,-9.14
2018-03-02T06:14:28.163Z,-9.10
2018-03-02T06:15:28.102Z,-9.19
2018-03-02T06:16:28.041Z,-9.04
2018-03-02T06:17:27.980Z,-9.15
2018-03-02T06:18:27.919Z,-9.14
2018-03-02T06:19:27.858Z,-9.18
2018-03-02T06:20:27.796Z,-9.05
2018-03-02T06:21:27.736Z,-9.10
2018-03-02T06:22:27.675Z,-9.14
2018-03-02T06:23:27.616Z,-9.04
2018-03-02T06:24:27.552Z,-9.04
2018-03-02T06:25:27.492Z,-8.96
2018-03-02T06:26:27.432Z,-8.94
2018-03-02T06:27:27.370Z,-9.01
2018-03-02T06:28:27.309Z,-8.93
2018-03-02T06:29:27.248Z,-8.94
2018-03-02T06:30:27.187Z,-8.91
2018-03-02T06:31:27.126Z,-8.89
2018-03-02T06:32:27.065Z,-8.89
2018-03-02T06:33:27.055Z,-8.87
2018-03-02T06:34:26.943Z,-8.89
2018-03-02T06:35:26.883Z,-8.81
2018-03-02T06:36:26.821Z,-8.80
2018-03-02T06:37:26.810Z,-8.70
2018-03-02T06:38:26.702Z,-8.83
2018-03-02T06:39:26.639Z,-8.70
2018-03-02T06:40:26.580Z,-8.76
2018-03-02T06:41:26.523Z,-8.75
2018-03-02T06:42:26.458Z,-8.69
2018-03-02T06:43:26.397Z,-8.69
2018-03-02T06:44:26.335Z,-8.48
2018-03-02T06:45:26.276Z,-8.45
2018-03-02T06:46:26.215Z,-8.47
2018-03-02T06:47:26.161Z,-8.37
2018-03-02T06:48:26.095Z,-8.37
2018-03-02T06:49:26.036Z,-8.47
2018-03-02T06:50:25.973Z,-8.40
2018-03-02T06:51:25.918Z,-8.48
2018-03-02T06:52:25.852Z,-8.40
2018-03-02T06:53:25.795Z,-8.45
2018-03-02T06:54:25.732Z,-8.44
2018-03-02T06:55:25.673Z,-8.45
2018-03-02T06:56:25.614Z,-8.29
2018-03-02T06:57:25.551Z,-7.90
2018-03-02T06:58:25.502Z,-7.40
2018-03-02T06:59:25.431Z,-6.73
2018-03-02T07:00:25.372Z,-6.16
2018-03-02T07:01:25.311Z,-5.68
2018-03-02T07:02:25.252Z,-5.33
2018-03-02T07:03:25.192Z,-5.04
2018-03-02T07:04:25.132Z,-4.51
2018-03-02T07:05:25.074Z,-4.29
2018-03-02T07:06:25.016Z,-4.03
2018-03-02T07:07:24.962Z,-3.67
2018-03-02T07:08:24.898Z,-3.56
2018-03-02T07:09:24.840Z,-3.45
2018-03-02T07:10:24.833Z,-3.45
2018-03-02T07:11:24.726Z,-3.05
2018-03-02T07:12:24.668Z,-2.77
2018-03-02T07:13:24.611Z,-2.45
2018-03-02T07:14:24.554Z,-2.42
2018-03-02T07:15:24.497Z,-2.48
2018-03-02T07:16:24.490Z,-2.52
2018-03-02T07:17:24.389Z,-2.30
2018-03-02T07:18:24.329Z,-2.15
2018-03-02T07:19:24.273Z,-2.23
2018-03-02T07:20:24.228Z,-1.98
2018-03-02T07:21:24.160Z,-1.59
2018-03-02T07:22:24.104Z,-1.55
2018-03-02T07:23:24.050Z,-1.40
2018-03-02T07:24:23.994Z,-1.13
2018-03-02T07:25:23.939Z,-0.89
2018-03-02T07:26:23.885Z,-0.64
2018-03-02T07:27:23.880Z,-0.21
2018-03-02T07:28:23.775Z,0.21
2018-03-02T07:29:23.744Z,0.61
2018-03-02T07:30:23.667Z,0.75
2018-03-02T07:31:23.617Z,1.00
2018-03-02T07:32:23.557Z,1.37
2018-03-02T07:33:23.505Z,1.45
2018-03-02T07:34:23.453Z,1.42
2018-03-02T07:35:23.399Z,1.52
2018-03-02T07:36:23.396Z,1.81
2018-03-02T07:37:23.294Z,2.07
2018-03-02T07:38:23.244Z,2.34
2018-03-02T07:39:23.189Z,2.56
2018-03-02T07:40:23.137Z,2.59
2018-03-02T07:41:23.084Z,2.41
2018-03-02T07:42:23.033Z,2.48
2018-03-02T07:43:22.982Z,2.43
2018-03-02T07:44:22.929Z,2.53
2018-03-02T07:45:22.878Z,2.66
2018-03-02T07:46:22.827Z,3.06
2018-03-02T07:47:22.781Z,3.47
2018-03-02T07:48:22.729Z,3.54
2018-03-02T07:49:22.679Z,3.65
2018-03-02T07:50:22.624Z,3.87
2018-03-02T07:51:22.575Z,4.23
2018-03-02T07:52:22.524Z,4.41
2018-03-02T07:53:22.474Z,4.52
2018-03-02T07:54:22.429Z,4.59
2018-03-02T07:55:22.375Z,4.59
2018-03-02T07:56:22.326Z,4.55
2018-03-02T07:57:22.277Z,4.51
2018-03-02T07:58:22.231Z,4.54
2018-03-02T07:59:22.181Z,4.54
2018-03-02T08:00:22.130Z,4.94
2018-03-02T08:01:22.081Z,4.89
2018-03-02T08:02:22.032Z,4.91
2018-03-02T08:03:21.985Z,4.88
2018-03-02T08:04:21.978Z,4.82
2018-03-02T08:05:21.888Z,5.18
2018-03-02T08:06:21.839Z,5.39
2018-03-02T08:07:21.792Z,5.67
2018-03-02T08:08:21.743Z,5.82
2018-03-02T08:09:21.696Z,6.00
2018-03-02T08:10:21.657Z,6.33
2018-03-02T08:11:21.601Z,6.70
2018-03-02T08:12:21.557Z,7.02
2018-03-02T08:13:21.508Z,7.37
2018-03-02T08:14:21.462Z,7.43
2018-03-02T08:15:21.414Z,7.52
2018-03-02T08:16:21.380Z,7.37
2018-03-02T08:17:21.324Z,7.37
2018-03-02T08:18:21.275Z,7.21
2018-03-02T08:19:21.229Z,7.09
2018-03-02T08:20:21.233Z,7.05
2018-03-02T08:21:21.136Z,6.70
2018-03-02T08:22:21.096Z,6.43
2018-03-02T08:23:21.046Z,6.46
2018-03-02T08:24:21.009Z,6.61
2018-03-02T08:25:20.955Z,6.85
2018-03-02T08:26:20.909Z,7.03
2018-03-02T08:27:20.864Z,7.39
2018-03-02T08:28:20.818Z,7.82
2018-03-02T08:29:20.772Z,8.16
2018-03-02T08:30:20.727Z,8.61
2018-03-02T08:31:20.682Z,8.66
2018-03-02T08:32:20.634Z,8.56
2018-03-02T08:33:20.591Z,8.47
2018-03-02T08:34:20.547Z,8.80
2018-03-02T08:35:20.501Z,9.02
2018-03-02T08:36:20.456Z,9.32
2018-03-02T08:37:20.413Z,9.46
2018-03-02T08:38:20.367Z,9.66
2018-03-02T08:39:20.324Z,9.76
2018-03-02T08:40:20.566Z,9.96
2018-03-02T08:41:20.234Z,10.12
2018-03-02T08:42:20.201Z,10.01
2018-03-02T08:43:20.148Z,10.14
2018-03-02T08:44:20.103Z,10.02
2018-03-02T08:45:20.160Z,9.91
2018-03-02T08:46:20.018Z,9.61
2018-03-02T08:47:19.973Z,9.46
2018-03-02T08:48:19.930Z,9.36
2018-03-02T08:49:19.887Z,9.35
2018-03-02T08:50:19.850Z,9.42
2018-03-02T08:51:19.801Z,9.46
2018-03-02T08:52:19.756Z,9.74
2018-03-02T08:53:19.715Z,9.75
2018-03-02T08:54:19.672Z,9.87
2018-03-02T08:55:19.630Z,10.07
2018-03-02T08:56:19.591Z,10.09
2018-03-02T08:57:19.544Z,9.93
2018-03-02T08:58:19.502Z,9.58
2018-03-02T08:59:19.460Z,9.69
2018-03-02T09:00:19.429Z,9.93
2018-03-02T09:01:19.378Z,10.47
2018-03-02T09:02:19.332Z,10.97
2018-03-02T09:03:19.291Z,11.40
2018-03-02T09:04:19.247Z,11.73
2018-03-02T09:05:19.205Z,11.85
2018-03-02T09:06:19.164Z,12.02
2018-03-02T09:07:19.123Z,11.79
2018-03-02T09:08:19.079Z,11.62
2018-03-02T09:09:19.036Z,11.27
2018-03-02T09:10:18.996Z,11.09
2018-03-02T09:11:18.954Z,10.68
2018-03-02T09:12:18.911Z,10.25
2018-03-02T09:13:18.870Z,10.11
2018-03-02T09:14:18.828Z,9.79
2018-03-02T09:15:18.806Z,9.56
2018-03-02T09:16:18.743Z,9.47
2018-03-02T09:17:18.750Z,9.60
2018-03-02T09:18:18.661Z,9.72
2018-03-02T09:19:18.620Z,9.86
2018-03-02T09:20:18.574Z,10.04
2018-03-02T09:21:18.536Z,10.05
2018-03-02T09:22:18.489Z,9.91
2018-03-02T09:23:18.448Z,9.74
2018-03-02T09:24:18.404Z,9.58
2018-03-02T09:25:18.363Z,9.21
2018-03-02T09:26:18.319Z,8.45
2018-03-02T09:27:18.280Z,8.05
2018-03-02T09:28:18.234Z,7.98
2018-03-02T09:29:18.192Z,7.72
2018-03-02T09:30:18.149Z,7.25
2018-03-02T09:31:18.106Z,6.84
2018-03-02T09:32:18.062Z,6.46
2018-03-02T09:33:18.019Z,6.21
2018-03-02T09:34:17.979Z,5.79
2018-03-02T09:35:17.932Z,5.79
2018-03-02T09:36:17.885Z,5.91
2018-03-02T09:37:17.875Z,6.09
2018-03-02T09:38:17.798Z,5.96
2018-03-02T09:39:17.754Z,5.79
2018-03-02T09:40:17.709Z,5.35
2018-03-02T09:41:17.663Z,4.91
2018-03-02T09:42:17.617Z,4.85
2018-03-02T09:43:17.574Z,4.70
2018-03-02T09:44:17.526Z,4.58
2018-03-02T09:45:17.481Z,4.45
2018-03-02T09:46:17.435Z,4.06
2018-03-02T09:47:17.391Z,3.84
2018-03-02T09:48:17.348Z,3.43
2018-03-02T09:49:17.296Z,3.17
2018-03-02T09:50:17.250Z,2.81
2018-03-02T09:51:17.203Z,2.61
2018-03-02T09:52:17.155Z,2.42
2018-03-02T09:53:17.108Z,1.99
2018-03-02T09:54:17.059Z,1.72
2018-03-02T09:55:17.013Z,1.42
2018-03-02T09:56:16.962Z,1.36
2018-03-02T09:57:16.915Z,1.22
2018-03-02T09:58:16.864Z,1.23
2018-03-02T09:59:16.853Z,1.06
2018-03-02T10:00:16.769Z,0.83
2018-03-02T10:01:16.715Z,0.72
2018-03-02T10:02:16.667Z,0.47
2018-03-02T10:03:16.615Z,0.23
2018-03-02T10:04:16.562Z,0.17
2018-03-02T10:05:16.512Z,0.20
2018-03-02T10:06:16.464Z,0.07
2018-03-02T10:07:16.410Z,-0.10
2018-03-02T10:08:16.357Z,-0.26
2018-03-02T10:09:16.310Z,-0.42
2018-03-02T10:10:16.254Z,-0.52
2018-03-02T10:11:16.202Z,-0.64
2018-03-02T10:12:16.149Z,-0.80
2018-03-02T10:13:16.100Z,-0.99
2018-03-02T10:14:16.045Z,-1.05
2018-03-02T10:15:15.992Z,-0.99
2018-03-02T10:16:15.938Z,-0.97
2018-03-02T10:17:15.901Z,-0.86
2018-03-02T10:18:15.833Z,-0.92
2018-03-02T10:19:15.779Z,-0.85
2018-03-02T10:20:15.728Z,-0.89
2018-03-02T10:21:15.672Z,-1.07
2018-03-02T10:22:15.621Z,-1.17
2018-03-02T10:23:15.565Z,-1.41
2018-03-02T10:24:15.512Z,-1.33
2018-03-02T10:25:15.457Z,-1.37
2018-03-02T10:26:15.404Z,-1.40
2018-03-02T10:27:15.348Z,-1.48
2018-03-02T10:28:15.295Z,-1.55
2018-03-02T10:29:15.291Z,-1.54
2018-03-02T10:30:15.192Z,-1.49
2018-03-02T10:31:15.133Z,-1.40
2018-03-02T10:32:15.078Z,-1.38
2018-03-02T10:33:15.023Z,-1.56
2018-03-02T10:34:14.968Z,-1.64
2018-03-02T10:35:14.916Z,-1.64
2018-03-02T10:36:14.859Z,-1.58
2018-03-02T10:37:14.806Z,-1.56
2018-03-02T10:38:14.751Z,-1.55
2018-03-02T10:39:14.697Z,-1.48
2018-03-02T10:40:14.645Z,-1.48
2018-03-02T10:41:14.587Z,-1.51
2018-03-02T10:42:14.533Z,-1.61
2018-03-02T10:43:14.478Z,-1.59
2018-03-02T10:44:14.423Z,-1.61
2018-03-02T10:45:14.368Z,-1.66
2018-03-02T10:46:14.314Z,-1.54
2018-03-02T10:47:14.260Z,-1.51
2018-03-02T10:48:14.206Z,-1.48
2018-03-02T10:49:14.165Z,-1.40
2018-03-02T10:50:14.095Z,-1.33
2018-03-02T10:51:14.041Z,-1.41
2018-03-02T10:52:13.985Z,-1.41
2018-03-02T10:53:13.930Z,-1.23
2018-03-02T10:54:13.875Z,-1.27
2018-03-02T10:55:13.822Z,-1.38
2018-03-02T10:56:13.783Z,-1.49
2018-03-02T10:57:13.712Z,-1.51
2018-03-02T10:58:13.656Z,-1.48
2018-03-02T10:59:13.601Z,-1.40
2018-03-02T11:00:13.546Z,-1.35
2018-03-02T11:01:13.492Z,-1.38
2018-03-02T11:02:13.438Z,-1.41
2018-03-02T11:03:13.383Z,-1.28
2018-03-02T11:04:13.327Z,-1.30
2018-03-02T11:05:13.287Z,-1.28
2018-03-02T11:06:13.219Z,-1.23
2018-03-02T11:07:13.164Z,-1.23
2018-03-02T11:08:13.109Z,-1.27
2018-03-02T11:09:13.054Z,-1.23
2018-03-02T11:10:12.999Z,-1.22
2018-03-02T11:11:12.944Z,-1.28
2018-03-02T11:12:12.889Z,-1.37
2018-03-02T11:13:12.839Z,-1.38
2018-03-02T11:14:12.778Z,-1.40
2018-03-02T11:15:12.725Z,-1.37
2018-03-02T11:16:12.669Z,-1.38
2018-03-02T11:17:12.615Z,-1.37
2018-03-02T11:18:12.559Z,-1.30
2018-03-02T11:19:12.505Z,-1.22
2018-03-02T11:20:12.452Z,-1.12
2018-03-02T11:21:12.393Z,-1.20
2018-03-02T11:22:12.341Z,-1.25
2018-03-02T11:23:12.286Z,-1.25
2018-03-02T11:24:12.280Z,-1.13
2018-03-02T11:25:12.175Z,-1.13
2018-03-02T11:26:12.121Z,-1.01
2018-03-02T11:27:12.068Z,-0.99
2018-03-02T11:28:12.015Z,-1.07
2018-03-02T11:29:11.956Z,-1.04
2018-03-02T11:30:11.908Z,-1.13
2018-03-02T11:31:11.847Z,-1.22
2018-03-02T11:32:11.790Z,-1.23
2018-03-02T11:33:11.737Z,-1.17
2018-03-02T11:34:11.682Z,-1.30
2018-03-02T11:35:11.628Z,-1.35
2018-03-02T11:36:11.572Z,-1.37
2018-03-02T11:37:11.517Z,-1.27
2018-03-02T11:38:11.466Z,-1.23
2018-03-02T11:39:11.409Z,-1.19
2018-03-02T11:40:11.352Z,-1.16
2018-03-02T11:41:11.299Z,-1.13
2018-03-02T11:42:11.244Z,-1.23
2018-03-02T11:43:11.188Z,-1.38
2018-03-02T11:44:11.132Z,-1.35
2018-03-02T11:45:11.079Z,-1.52
2018-03-02T11:46:11.022Z,-1.41
2018-03-02T11:47:10.968Z,-1.51
2018-03-02T11:48:10.912Z,-1.43
2018-03-02T11:49:10.859Z,-1.52
2018-03-02T11:50:10.803Z,-1.52
2018-03-02T11:51:10.748Z,-1.37
2018-03-02T11:52:10.692Z,-1.38
2018-03-02T11:53:10.639Z,-1.38
2018-03-02T11:54:10.584Z,-1.30
2018-03-02T11:55:10.528Z,-1.28
2018-03-02T11:56:10.472Z,-1.27
2018-03-02T11:57:10.416Z,-1.15
2018-03-02T11:58:10.362Z,-1.20
2018-03-02T11:59:10.307Z,-1.38
2018-03-02T12:00:10.252Z,-1.40
2018-03-02T12:01:10.200Z,-1.52
2018-03-02T12:02:10.141Z,-1.40
2018-03-02T12:03:10.087Z,-1.43
2018-03-02T12:04:10.030Z,-1.46
2018-03-02T12:05:09.976Z,-1.56
2018-03-02T12:06:09.920Z,-1.59
2018-03-02T12:07:09.865Z,-1.49
2018-03-02T12:08:09.809Z,-1.55
2018-03-02T12:09:09.754Z,-1.35
2018-03-02T12:10:09.699Z,-1.31
2018-03-02T12:11:09.644Z,-1.34
2018-03-02T12:12:09.589Z,-1.35
2018-03-02T12:13:09.534Z,-1.33
2018-03-02T12:14:09.477Z,-1.38
2018-03-02T12:15:09.423Z,-1.51
2018-03-02T12:16:09.368Z,-1.49
2018-03-02T12:17:09.312Z,-1.46
2018-03-02T12:18:09.258Z,-1.61
2018-03-02T12:19:09.203Z,-1.59
2018-03-02T12:20:09.146Z,-1.59
2018-03-02T12:21:09.092Z,-1.54
2018-03-02T12:22:09.035Z,-1.59
2018-03-02T12:23:08.981Z,-1.56
2018-03-02T12:24:08.975Z,-1.59
2018-03-02T12:25:08.870Z,-1.51
2018-03-02T12:26:08.815Z,-1.58
2018-03-02T12:27:08.760Z,-1.58
2018-03-02T12:28:08.702Z,-1.43
2018-03-02T12:29:08.699Z,-1.37
2018-03-02T12:30:08.591Z,-1.37
2018-03-02T12:31:08.565Z,-1.13
2018-03-02T12:32:08.482Z,-1.10
2018-03-02T12:33:08.429Z,-1.12
2018-03-02T12:34:08.374Z,-1.12
2018-03-02T12:35:08.321Z,-1.17
2018-03-02T12:36:08.262Z,-1.13
2018-03-02T12:37:08.207Z,-1.23
2018-03-02T12:38:08.152Z,-1.15
2018-03-02T12:39:08.097Z,-1.20
2018-03-02T12:40:08.041Z,-1.10
2018-03-02T12:41:07.993Z,-0.98
2018-03-02T12:42:07.931Z,-1.02
2018-03-02T12:43:07.875Z,-0.98
2018-03-02T12:44:07.821Z,-1.04
2018-03-02T12:45:07.766Z,-1.05
2018-03-02T12:46:07.712Z,-1.05
2018-03-02T12:47:07.659Z,-0.94
2018-03-02T12:48:07.602Z,-0.94
2018-03-02T12:49:07.597Z,-1.01
2018-03-02T12:50:07.492Z,-0.85
2018-03-02T12:51:07.436Z,-0.99
2018-03-02T12:52:07.381Z,-0.98
2018-03-02T12:53:07.326Z,-0.99
2018-03-02T12:54:07.272Z,-1.02
2018-03-02T12:55:07.270Z,-0.97
2018-03-02T12:56:07.161Z,-1.01
2018-03-02T12:57:07.108Z,-0.98